createdAt,value
2019-03-28T04:57:13.663Z,26.00
2019-03-28T04:59:43.459Z,23.73
2019-03-28T05:02:13.190Z,22.97
2019-03-28T05:04:42.920Z,24.07
2019-03-28T05:07:12.607Z,23.43
2019-03-28T05:09:42.455Z,22.77
2019-03-28T05:12:12.120Z,25.87
2019-03-28T05:14:42.339Z,24.57
2019-03-28T05:17:12.084Z,24.83
2019-03-28T05:19:41.786Z,24.77
2019-03-28T05:22:11.504Z,21.33
2019-03-28T05:24:41.183Z,24.23
2019-03-28T05:27:10.959Z,23.67
2019-03-28T05:29:40.720Z,21.67
2019-03-28T05:32:10.410Z,23.67
2019-03-28T05:34:40.096Z,24.40
2019-03-28T05:37:10.407Z,23.77
2019-03-28T05:39:40.474Z,21.60
2019-03-28T05:42:10.243Z,23.57
2019-03-28T05:44:39.941Z,22.20
2019-03-28T05:47:09.630Z,20.43
2019-03-28T05:49:39.450Z,21.30
2019-03-28T05:52:11.640Z,25.73
2019-03-28T05:54:40.590Z,23.07
2019-03-28T05:57:10.351Z,24.50
2019-03-28T05:59:40.304Z,24.03
2019-03-28T06:02:10.364Z,23.10
2019-03-28T06:04:40.035Z,24.57
2019-03-28T06:07:10.380Z,24.13
2019-03-28T06:09:40.536Z,22.20
2019-03-28T06:12:10.625Z,26.53
2019-03-28T06:14:40.309Z,23.50
2019-03-28T06:17:10.014Z,26.67
2019-03-28T06:19:39.753Z,26.43
2019-03-28T06:22:09.439Z,26.33
2019-03-28T06:24:39.194Z,25.13
2019-03-28T06:27:09.006Z,27.17
2019-03-28T06:29:38.828Z,28.90
2019-03-28T06:32:08.498Z,25.80
2019-03-28T06:34:38.210Z,25.90
2019-03-28T06:37:07.986Z,29.97
2019-03-28T06:39:37.748Z,29.43
2019-03-28T06:42:07.459Z,29.50
2019-03-28T06:44:37.184Z,29.10
2019-03-28T06:47:07.011Z,32.00
2019-03-28T06:49:36.981Z,35.53
2019-03-28T06:52:06.706Z,34.53
2019-03-28T06:54:36.417Z,37.80
2019-03-28T06:57:06.108Z,41.20
2019-03-28T06:59:37.575Z,42.13
2019-03-28T07:02:07.260Z,41.80
2019-03-28T07:04:36.999Z,37.87
2019-03-28T07:07:06.863Z,43.10
2019-03-28T07:09:36.590Z,37.83
2019-03-28T07:12:06.765Z,42.33
2019-03-28T07:14:36.583Z,43.30
2019-03-28T07:17:06.286Z,40.17
2019-03-28T07:19:36.087Z,41.20
2019-03-28T07:22:05.880Z,46.00
2019-03-28T07:24:35.637Z,45.87
2019-03-28T07:27:05.452Z,45.53
2019-03-28T07:29:35.168Z,45.03
2019-03-28T07:32:04.918Z,48.80
2019-03-28T07:34:34.745Z,42.90
2019-03-28T07:37:05.067Z,40.53
2019-03-28T07:39:34.907Z,41.30
2019-03-28T07:42:04.754Z,38.13
2019-03-28T07:44:37.396Z,43.30
2019-03-28T07:47:05.828Z,40.53
2019-03-28T07:49:37.627Z,42.93
2019-03-28T07:52:07.036Z,44.00
2019-03-28T07:54:36.746Z,42.00
2019-03-28T07:57:06.432Z,43.67
2019-03-28T07:59:36.206Z,41.33
2019-03-28T08:02:05.903Z,43.30
2019-03-28T08:04:35.638Z,41.03
2019-03-28T08:07:05.436Z,44.37
2019-03-28T08:09:36.808Z,40.23
2019-03-28T08:12:21.476Z,40.00
2019-03-28T08:14:38.285Z,41.77
2019-03-28T08:17:08.007Z,42.07
2019-03-28T08:19:41.398Z,36.23
2019-03-28T08:22:09.235Z,37.10
2019-03-28T08:24:39.198Z,37.03
2019-03-28T08:27:08.914Z,37.90
2019-03-28T08:29:38.619Z,34.80
2019-03-28T08:32:13.552Z,32.90
2019-03-28T08:34:44.627Z,29.13
2019-03-28T08:37:16.279Z,26.67
2019-03-28T08:39:45.972Z,26.47
2019-03-28T08:42:15.697Z,25.10
2019-03-28T08:44:45.400Z,26.30
2019-03-28T08:47:15.155Z,25.27
2019-03-28T08:49:44.976Z,25.30
2019-03-28T08:52:14.713Z,23.87
2019-03-28T08:54:44.427Z,22.90
2019-03-28T08:57:14.151Z,24.20
2019-03-28T08:59:44.100Z,25.37
2019-03-28T09:02:13.885Z,26.00
2019-03-28T09:04:43.660Z,23.23
2019-03-28T09:07:13.469Z,20.30
2019-03-28T09:09:43.148Z,20.03
2019-03-28T09:12:12.954Z,15.97
2019-03-28T09:14:42.816Z,10.77
2019-03-28T09:17:12.508Z,12.07
2019-03-28T09:19:42.191Z,13.60
2019-03-28T09:22:12.030Z,20.73
2019-03-28T09:24:41.741Z,17.67
2019-03-28T09:27:11.536Z,18.73
2019-03-28T09:29:41.292Z,17.50
2019-03-28T09:32:11.062Z,21.20
2019-03-28T09:34:40.826Z,22.70
2019-03-28T09:37:10.544Z,24.03
2019-03-28T09:39:40.350Z,22.73
2019-03-28T09:42:10.073Z,24.67
2019-03-28T09:44:40.085Z,23.10
2019-03-28T09:47:09.926Z,18.03
2019-03-28T09:49:39.646Z,19.87
2019-03-28T09:52:09.557Z,23.60
2019-03-28T09:54:39.341Z,21.90
2019-03-28T09:57:09.060Z,21.67
2019-03-28T09:59:38.740Z,22.47
2019-03-28T10:02:08.441Z,23.40
2019-03-28T10:04:38.239Z,20.27
2019-03-28T10:07:08.019Z,25.03
2019-03-28T10:09:38.002Z,20.90
2019-03-28T10:12:07.948Z,21.27
2019-03-28T10:14:37.725Z,20.03
2019-03-28T10:17:07.515Z,17.53
2019-03-28T10:19:37.212Z,15.30
2019-03-28T10:22:07.201Z,16.67
2019-03-28T10:24:36.896Z,21.33
2019-03-28T10:27:06.663Z,15.60
2019-03-28T10:29:36.401Z,17.30
2019-03-28T10:32:06.548Z,15.03
2019-03-28T10:34:36.536Z,14.07
2019-03-28T10:37:06.233Z,11.60
2019-03-28T10:39:36.044Z,12.73
2019-03-28T10:42:06.147Z,13.93
2019-03-28T10:44:35.912Z,12.13
2019-03-28T10:47:06.089Z,11.33
2019-03-28T10:49:35.760Z,12.03
2019-03-28T10:52:05.877Z,11.50
2019-03-28T10:54:35.631Z,11.20
2019-03-28T10:57:13.463Z,13.33
2019-03-28T10:59:37.359Z,11.27
2019-03-28T11:02:07.880Z,11.27
2019-03-28T11:04:37.578Z,12.00
2019-03-28T11:07:07.512Z,11.10
2019-03-28T11:09:37.186Z,10.17
2019-03-28T11:12:06.965Z,11.50
2019-03-28T11:14:36.624Z,12.10
2019-03-28T11:17:06.442Z,10.47
2019-03-28T11:19:36.236Z,9.27
2019-03-28T11:22:06.040Z,10.40
2019-03-28T11:24:35.758Z,10.23
2019-03-28T11:27:05.596Z,9.93
2019-03-28T11:29:35.313Z,10.67
2019-03-28T11:32:05.016Z,10.37
2019-03-28T11:34:34.799Z,10.80
2019-03-28T11:37:05.324Z,11.23
2019-03-28T11:39:35.004Z,10.00
2019-03-28T11:42:05.272Z,12.03
2019-03-28T11:44:34.982Z,10.23
2019-03-28T11:47:04.862Z,8.83
2019-03-28T11:49:35.028Z,11.60
2019-03-28T11:52:04.734Z,9.77
2019-03-28T11:54:34.410Z,10.13
2019-03-28T11:57:04.104Z,10.00
2019-03-28T11:59:33.805Z,8.30
2019-03-28T12:02:19.172Z,9.90
2019-03-28T12:04:34.997Z,9.43
2019-03-28T12:07:05.094Z,9.90
2019-03-28T12:09:34.792Z,11.27
2019-03-28T12:12:04.468Z,9.27
2019-03-28T12:14:34.184Z,8.37
2019-03-28T12:17:04.017Z,7.50
2019-03-28T12:19:33.717Z,8.53
2019-03-28T12:22:03.476Z,7.07
2019-03-28T12:24:33.209Z,9.70
2019-03-28T12:27:02.931Z,7.50
2019-03-28T12:29:35.659Z,9.57
2019-03-28T12:32:13.947Z,7.70
2019-03-28T12:34:35.542Z,10.00
2019-03-28T12:37:05.405Z,8.60
2019-03-28T12:39:35.111Z,9.17
2019-03-28T12:42:04.770Z,9.37
2019-03-28T12:44:34.540Z,8.37
2019-03-28T12:47:04.242Z,8.13
2019-03-28T12:49:33.989Z,9.40
2019-03-28T12:52:03.737Z,11.73
2019-03-28T12:54:33.441Z,8.27
2019-03-28T12:57:04.890Z,10.03
2019-03-28T12:59:34.815Z,8.03
2019-03-28T13:02:04.519Z,8.43
2019-03-28T13:04:34.208Z,10.60
2019-03-28T13:07:04.123Z,8.63
2019-03-28T13:09:33.810Z,7.20
2019-03-28T13:12:03.573Z,7.67
2019-03-28T13:14:33.252Z,7.87
2019-03-28T13:17:03.086Z,7.83
2019-03-28T13:19:32.838Z,7.20
2019-03-28T13:22:02.755Z,7.63
2019-03-28T13:24:32.846Z,7.87
2019-03-28T13:27:02.580Z,7.33
2019-03-28T13:29:32.483Z,8.13
2019-03-28T13:32:02.285Z,7.33
2019-03-28T13:34:31.986Z,7.67
2019-03-28T13:37:01.763Z,8.77
2019-03-28T13:39:31.493Z,7.87
2019-03-28T13:42:01.221Z,8.50
2019-03-28T13:44:30.972Z,8.30
2019-03-28T13:47:00.882Z,7.13
2019-03-28T13:49:30.571Z,8.40
2019-03-28T13:52:00.251Z,8.50
2019-03-28T13:54:29.983Z,9.07
2019-03-28T13:56:59.747Z,7.73
2019-03-28T13:59:29.575Z,8.53
2019-03-28T14:01:59.427Z,8.80
2019-03-28T14:04:29.330Z,9.53
2019-03-28T14:06:59.012Z,8.23
2019-03-28T14:09:28.841Z,9.13
2019-03-28T14:11:58.516Z,9.63
2019-03-28T14:14:28.225Z,9.30
2019-03-28T14:16:57.891Z,7.40
2019-03-28T14:19:27.732Z,6.97
2019-03-28T14:21:57.425Z,8.47
2019-03-28T14:24:27.325Z,7.97
2019-03-28T14:26:57.011Z,8.07
2019-03-28T14:29:29.761Z,7.77
2019-03-28T14:31:59.907Z,9.07
2019-03-28T14:34:29.854Z,8.00
2019-03-28T14:36:59.555Z,7.90
2019-03-28T14:39:29.345Z,7.20
2019-03-28T14:41:59.255Z,9.10
2019-03-28T14:44:28.955Z,9.10
2019-03-28T14:46:58.728Z,7.37
2019-03-28T14:49:28.628Z,12.60
2019-03-28T14:51:58.735Z,7.30
2019-03-28T14:54:28.423Z,7.33
2019-03-28T14:56:58.685Z,8.23
2019-03-28T14:59:32.758Z,9.60
2019-03-28T15:02:02.220Z,7.27
2019-03-28T15:04:31.976Z,7.83
2019-03-28T15:07:01.664Z,8.73
2019-03-28T15:09:31.334Z,10.23
2019-03-28T15:12:01.118Z,8.37
2019-03-28T15:14:30.934Z,8.17
2019-03-28T15:17:24.489Z,8.17
2019-03-28T15:19:54.186Z,7.63
2019-03-28T15:22:23.987Z,8.80
2019-03-28T15:24:53.653Z,8.27
2019-03-28T15:27:23.374Z,9.23
2019-03-28T15:29:53.205Z,9.73
2019-03-28T15:32:22.914Z,7.97
2019-03-28T15:34:52.596Z,8.30
2019-03-28T15:37:22.318Z,9.00
2019-03-28T15:39:52.073Z,10.43
2019-03-28T15:42:21.850Z,12.83
2019-03-28T15:44:51.587Z,11.17
2019-03-28T15:47:21.289Z,8.23
2019-03-28T15:49:51.003Z,13.10
2019-03-28T15:52:20.879Z,10.67
2019-03-28T15:54:50.754Z,11.03
2019-03-28T15:57:20.470Z,9.43
2019-03-28T15:59:50.241Z,10.70
2019-03-28T16:02:20.705Z,11.43
2019-03-28T16:04:50.381Z,9.13
2019-03-28T16:07:20.176Z,9.63
2019-03-28T16:09:49.851Z,10.73
2019-03-28T16:12:19.580Z,10.30
2019-03-28T16:14:49.271Z,10.03
2019-03-28T16:17:19.169Z,9.53
2019-03-28T16:19:48.958Z,10.93
2019-03-28T16:22:18.758Z,10.07
2019-03-28T16:24:48.905Z,8.93
2019-03-28T16:27:18.782Z,9.47
2019-03-28T16:29:48.603Z,9.13
2019-03-28T16:32:18.415Z,7.77
2019-03-28T16:34:48.122Z,12.03
2019-03-28T16:37:17.838Z,9.07
2019-03-28T16:39:49.961Z,9.20
2019-03-28T16:42:19.111Z,10.30
2019-03-28T16:44:48.838Z,10.47
2019-03-28T16:47:18.580Z,11.27
2019-03-28T16:49:48.333Z,9.27
2019-03-28T16:52:18.332Z,7.30
2019-03-28T16:54:48.469Z,7.50
2019-03-28T16:57:18.335Z,8.93
2019-03-28T16:59:48.041Z,9.17
2019-03-28T17:02:17.743Z,9.77
2019-03-28T17:04:53.555Z,10.30
2019-03-28T17:07:25.644Z,7.00
2019-03-28T17:09:56.562Z,10.37
2019-03-28T17:12:26.446Z,8.13
2019-03-28T17:14:56.207Z,5.53
2019-03-28T17:17:25.951Z,8.07
2019-03-28T17:19:55.618Z,6.13
2019-03-28T17:22:25.434Z,7.30
2019-03-28T17:24:55.180Z,6.33
2019-03-28T17:27:24.841Z,5.77
2019-03-28T17:29:54.559Z,5.77
2019-03-28T17:32:24.258Z,6.33
2019-03-28T17:34:53.922Z,7.53
2019-03-28T17:37:23.634Z,8.23
2019-03-28T17:39:53.370Z,9.30
2019-03-28T17:42:23.334Z,6.10
2019-03-28T17:44:54.060Z,7.17
2019-03-28T17:47:23.816Z,8.43
2019-03-28T17:49:53.711Z,11.97
2019-03-28T17:52:23.450Z,6.77
2019-03-28T17:54:53.146Z,7.40
2019-03-28T17:57:23.027Z,7.27
2019-03-28T17:59:52.729Z,5.80
2019-03-28T18:02:22.804Z,6.07
2019-03-28T18:04:52.518Z,4.97
2019-03-28T18:07:22.218Z,7.40
2019-03-28T18:09:51.904Z,6.60
2019-03-28T18:12:21.600Z,4.47
2019-03-28T18:14:51.298Z,4.67
2019-03-28T18:17:21.024Z,5.40
2019-03-28T18:19:50.730Z,5.10
2019-03-28T18:22:21.852Z,4.63
2019-03-28T18:24:51.530Z,4.83
2019-03-28T18:27:21.240Z,6.50
2019-03-28T18:29:50.951Z,5.07
2019-03-28T18:32:20.613Z,5.37
2019-03-28T18:35:04.674Z,5.60
2019-03-28T18:37:21.720Z,5.47
2019-03-28T18:39:51.411Z,6.80
2019-03-28T18:42:48.182Z,6.97
2019-03-28T18:45:17.943Z,5.50
2019-03-28T18:47:47.759Z,7.23
2019-03-28T18:50:17.956Z,5.63
2019-03-28T18:52:47.695Z,7.70
2019-03-28T18:55:20.544Z,6.63
2019-03-28T18:57:49.107Z,6.53
2019-03-28T19:00:19.031Z,5.50
2019-03-28T19:02:49.504Z,4.90
2019-03-28T19:05:20.429Z,8.90
2019-03-28T19:07:50.357Z,7.83
2019-03-28T19:10:20.108Z,9.53
2019-03-28T19:12:49.848Z,7.77
2019-03-28T19:15:19.631Z,5.10
2019-03-28T19:17:49.404Z,6.23
2019-03-28T19:20:19.087Z,7.23
2019-03-28T19:22:50.196Z,5.53
2019-03-28T19:25:20.448Z,5.00
2019-03-28T19:27:50.348Z,5.97
2019-03-28T19:30:32.496Z,6.00
2019-03-28T19:33:02.836Z,8.00
2019-03-28T19:35:33.511Z,7.40
2019-03-28T19:38:04.636Z,5.90
2019-03-28T19:40:34.574Z,8.00
2019-03-28T19:43:23.287Z,6.07
2019-03-28T19:45:53.190Z,9.67
2019-03-28T19:48:22.870Z,8.53
2019-03-28T19:50:52.664Z,7.13
2019-03-28T19:53:22.345Z,8.53
2019-03-28T19:55:52.054Z,8.87
2019-03-28T19:58:21.719Z,8.63
2019-03-28T20:00:51.448Z,6.10
2019-03-28T20:03:23.196Z,6.67
2019-03-28T20:05:53.386Z,12.53
2019-03-28T20:08:25.989Z,10.10
2019-03-28T20:10:54.483Z,9.20
2019-03-28T20:13:24.703Z,9.03
2019-03-28T20:15:54.466Z,10.30
2019-03-28T20:18:24.247Z,7.67
2019-03-28T20:20:55.658Z,7.13
2019-03-28T20:23:28.807Z,7.53
2019-03-28T20:25:58.977Z,8.00
2019-03-28T20:28:28.916Z,10.53
2019-03-28T20:31:00.068Z,9.03
2019-03-28T20:33:29.827Z,11.77
2019-03-28T20:36:18.614Z,10.40
2019-03-28T20:38:32.183Z,8.90
2019-03-28T20:41:02.344Z,9.37
2019-03-28T20:43:32.380Z,10.53
2019-03-28T20:46:02.972Z,8.20
2019-03-28T20:48:33.071Z,7.83
2019-03-28T20:51:03.588Z,8.13
2019-03-28T20:53:33.529Z,8.97
2019-03-28T20:56:03.831Z,9.00
2019-03-28T20:58:33.624Z,9.73
2019-03-28T21:01:04.797Z,8.60
2019-03-28T21:03:35.243Z,11.70
2019-03-28T21:06:14.577Z,13.13
2019-03-28T21:08:36.372Z,8.87
2019-03-28T21:11:06.063Z,8.43
2019-03-28T21:13:36.043Z,11.00
2019-03-28T22:33:57.878Z,10.73
2019-03-28T22:36:27.650Z,8.93
2019-03-28T22:38:57.306Z,8.23
2019-03-28T22:41:26.987Z,8.60
2019-03-28T22:43:56.818Z,8.73
2019-03-28T22:46:26.556Z,9.47
2019-03-28T22:48:56.343Z,9.17
2019-03-28T22:51:26.102Z,9.30
2019-03-28T22:53:55.786Z,12.10
2019-03-28T22:56:25.636Z,8.83
2019-03-28T22:58:55.320Z,10.83
